createdAt,value
2018-10-16T00:01:17.550Z,18.13
2018-10-16T00:03:48.299Z,18.14
2018-10-16T00:06:19.060Z,18.14
2018-10-16T00:08:50.005Z,18.04
2018-10-16T00:11:20.572Z,18.04
2018-10-16T00:13:51.310Z,18.16
2018-10-16T00:16:22.103Z,18.17
2018-10-16T00:18:52.891Z,18.03
2018-10-16T00:21:23.623Z,18.03
2018-10-16T00:23:54.349Z,18.06
2018-10-16T00:26:25.058Z,17.99
2018-10-16T00:28:55.851Z,17.84
2018-10-16T00:31:26.504Z,17.84
2018-10-16T00:33:57.288Z,17.80
2018-10-16T00:36:28.065Z,17.83
2018-10-16T00:38:58.915Z,17.85
2018-10-16T00:47:05.322Z,17.83
2018-10-16T00:49:54.909Z,17.80
2018-10-16T00:52:25.998Z,17.82
2018-10-16T00:54:56.833Z,17.80
2018-10-16T00:57:27.467Z,17.79
2018-10-16T00:59:58.299Z,17.72
2018-10-16T01:02:29.117Z,17.69
2018-10-16T01:04:59.946Z,17.56
2018-10-16T01:07:30.796Z,17.56
2018-10-16T01:10:01.531Z,17.61
2018-10-16T01:12:32.338Z,17.58
2018-10-16T01:15:03.111Z,17.58
2018-10-16T01:17:33.955Z,17.52
2018-10-16T01:20:03.407Z,17.52
2018-10-16T01:22:34.109Z,17.44
2018-10-16T01:25:04.938Z,17.51
2018-10-16T01:27:35.845Z,17.51
2018-10-16T01:30:06.542Z,17.47
2018-10-16T01:32:37.890Z,17.34
2018-10-16T01:35:10.074Z,17.25
2018-10-16T01:37:40.903Z,17.15
2018-10-16T01:40:13.551Z,17.15
2018-10-16T01:42:44.311Z,17.15
2018-10-16T01:45:15.080Z,17.24
2018-10-16T01:47:45.960Z,17.16
2018-10-16T01:50:15.417Z,17.16
2018-10-16T01:52:46.067Z,17.23
2018-10-16T01:55:16.915Z,17.22
2018-10-16T01:57:47.817Z,17.22
2018-10-16T02:00:18.529Z,17.24
2018-10-16T02:02:49.136Z,17.15
2018-10-16T02:05:19.922Z,17.13
2018-10-16T02:07:50.570Z,17.07
2018-10-16T02:10:21.343Z,17.05
2018-10-16T02:12:52.076Z,17.02
2018-10-16T02:15:22.866Z,17.01
2018-10-16T02:17:53.588Z,17.01
2018-10-16T02:20:24.341Z,16.93
2018-10-16T02:22:55.157Z,16.98
2018-10-16T02:25:25.913Z,16.99
2018-10-16T02:27:56.570Z,16.95
2018-10-16T02:30:27.341Z,16.98
2018-10-16T02:32:58.138Z,17.01
2018-10-16T02:35:28.906Z,17.02
2018-10-16T02:37:59.598Z,17.02
2018-10-16T02:40:30.327Z,17.10
2018-10-16T02:43:01.075Z,17.09
2018-10-16T02:45:31.914Z,17.13
2018-10-16T02:48:02.783Z,17.13
2018-10-16T02:50:33.474Z,17.18
2018-10-16T02:53:04.332Z,17.17
2018-10-16T02:55:35.052Z,17.25
2018-10-16T02:58:05.896Z,17.31
2018-10-16T03:00:36.594Z,17.31
2018-10-16T03:03:07.388Z,17.30
2018-10-16T03:05:38.114Z,17.33
2018-10-16T03:08:09.086Z,17.29
2018-10-16T03:10:39.898Z,17.27
2018-10-16T03:13:10.862Z,17.27
2018-10-16T03:15:41.611Z,17.40
2018-10-16T03:18:12.318Z,17.40
2018-10-16T03:20:43.245Z,17.35
2018-10-16T03:23:13.895Z,17.38
2018-10-16T03:25:44.807Z,17.39
2018-10-16T03:41:19.313Z,17.35
2018-10-16T03:44:02.306Z,17.34
2018-10-16T03:46:33.122Z,17.27
2018-10-16T03:49:03.898Z,17.45
2018-10-16T03:51:34.848Z,17.45
2018-10-16T03:54:05.559Z,17.45
2018-10-16T03:56:36.299Z,17.52
2018-10-16T03:59:07.337Z,17.63
2018-10-16T04:01:38.037Z,17.67
2018-10-16T04:04:08.902Z,17.59
2018-10-16T04:06:39.618Z,17.59
2018-10-16T04:09:10.364Z,17.69
2018-10-16T04:11:41.066Z,17.54
2018-10-16T04:14:11.905Z,17.53
2018-10-16T04:16:42.841Z,17.53
2018-10-16T04:19:13.557Z,17.47
2018-10-16T04:21:47.986Z,17.52
2018-10-16T04:24:18.783Z,17.50
2018-10-16T04:26:49.545Z,17.49
2018-10-16T04:29:20.356Z,17.49
2018-10-16T04:31:51.069Z,17.52
2018-10-16T04:34:21.925Z,17.57
2018-10-16T04:36:51.390Z,17.57
2018-10-16T04:39:22.069Z,17.57
2018-10-16T04:41:52.897Z,17.48
2018-10-16T04:44:23.779Z,17.48
2018-10-16T04:46:54.480Z,17.47
2018-10-16T04:49:25.310Z,17.42
2018-10-16T04:51:56.061Z,17.47
2018-10-16T04:54:26.912Z,17.43
2018-10-16T04:56:57.838Z,17.43
2018-10-16T04:59:28.548Z,17.39
2018-10-16T05:01:59.242Z,17.34
2018-10-16T05:04:30.065Z,17.36
2018-10-16T05:07:00.951Z,17.30
2018-10-16T05:09:30.392Z,17.30
2018-10-16T05:12:01.117Z,17.33
2018-10-16T05:15:02.422Z,17.28
2018-10-16T05:17:21.519Z,17.28
2018-10-16T05:20:11.100Z,17.32
2018-10-16T05:23:01.527Z,17.27
2018-10-16T05:25:32.556Z,17.27
2018-10-16T05:28:22.153Z,17.19
2018-10-16T05:30:52.959Z,17.29
2018-10-16T05:33:41.048Z,17.16
2018-10-16T05:52:36.572Z,17.39
2018-10-16T05:55:18.485Z,17.30
2018-10-16T05:57:49.484Z,17.26
2018-10-16T06:00:57.850Z,17.17
2018-10-16T06:03:47.436Z,17.17
2018-10-16T06:08:54.941Z,17.33
2018-10-16T06:11:43.064Z,17.27
2018-10-16T06:14:46.718Z,17.28
2018-10-16T06:17:22.109Z,17.28
2018-10-16T06:22:44.606Z,17.52
2018-10-16T06:25:34.444Z,17.52
2018-10-16T06:31:33.142Z,17.72
2018-10-16T06:34:03.963Z,17.70
2018-10-16T06:36:33.466Z,17.74
2018-10-16T06:39:23.060Z,17.74
2018-10-16T06:42:12.572Z,17.71
2018-10-16T06:44:43.475Z,17.71
2018-10-16T06:47:33.043Z,17.78
2018-10-16T06:50:22.589Z,17.88
2018-10-16T07:02:46.563Z,18.00
2018-10-16T07:12:01.576Z,18.02
2018-10-16T07:14:32.369Z,17.98
2018-10-16T07:17:22.068Z,18.07
2018-10-16T07:20:11.903Z,18.17
2018-10-16T07:22:42.856Z,18.17
2018-10-16T07:25:13.582Z,18.16
2018-10-16T07:28:03.353Z,18.19
2018-10-16T07:30:34.375Z,18.22
2018-10-16T07:33:05.094Z,18.26
2018-10-16T07:35:54.591Z,18.29
2018-10-16T07:52:14.567Z,18.68
2018-10-16T07:54:56.839Z,18.64
2018-10-16T08:12:52.538Z,19.19
2018-10-16T08:15:42.079Z,19.32
2018-10-16T08:18:31.621Z,19.50
2018-10-16T08:21:21.262Z,19.55
2018-10-16T08:24:11.031Z,19.55
2018-10-16T08:27:00.849Z,19.87
2018-10-16T08:29:31.582Z,19.87
2018-10-16T08:42:18.116Z,20.62
2018-10-16T08:45:00.066Z,21.40
2018-10-16T08:47:42.186Z,21.82
2018-10-16T08:50:24.008Z,22.51
2018-10-16T08:52:54.927Z,22.51
2018-10-16T08:55:24.448Z,23.11
2018-10-16T08:57:55.395Z,23.99
2018-10-16T09:00:26.122Z,23.92
2018-10-16T09:03:16.008Z,24.38
2018-10-16T09:06:05.532Z,24.54
2018-10-16T09:08:55.055Z,25.24
2018-10-16T09:11:45.996Z,25.65
2018-10-16T09:14:17.535Z,26.12
2018-10-16T09:17:07.114Z,25.99
2018-10-16T09:19:56.929Z,25.89
2018-10-16T09:22:44.989Z,25.83
2018-10-16T09:25:34.529Z,25.09
2018-10-16T09:28:24.130Z,24.38
2018-10-16T09:31:13.609Z,23.57
2018-10-16T09:41:26.989Z,23.19
2018-10-16T09:44:08.487Z,23.09
2018-10-16T09:46:50.587Z,23.03
2018-10-16T09:49:33.191Z,22.85
2018-10-16T09:52:15.330Z,22.70
2018-10-16T09:54:46.106Z,22.70
2018-10-16T09:57:35.605Z,22.91
2018-10-16T10:11:26.048Z,23.39
2018-10-16T10:13:56.938Z,23.50
2018-10-16T10:16:26.459Z,23.69
2018-10-16T10:19:16.051Z,24.31
2018-10-16T10:22:05.923Z,24.39
2018-10-16T10:24:54.008Z,24.93
2018-10-16T10:27:24.921Z,25.12
2018-10-16T10:29:54.404Z,24.87
2018-10-16T10:32:44.036Z,25.14
2018-10-16T10:35:34.027Z,25.89
2018-10-16T10:38:23.569Z,27.27
2018-10-16T10:51:27.944Z,30.64
2018-10-16T10:54:17.487Z,31.97
2018-10-16T10:57:08.081Z,31.97
2018-10-16T10:59:55.959Z,32.33
2018-10-16T11:02:47.119Z,32.85
2018-10-16T11:05:15.266Z,33.17
2018-10-16T11:07:46.556Z,33.80
2018-10-16T11:10:17.557Z,34.63
2018-10-16T11:12:48.948Z,35.54
2018-10-16T11:15:18.452Z,35.76
2018-10-16T11:17:51.584Z,35.65
2018-10-16T11:20:22.940Z,35.14
2018-10-16T11:22:52.488Z,35.50
2018-10-16T11:25:24.604Z,35.02
2018-10-16T11:27:55.889Z,35.62
2018-10-16T11:30:25.475Z,35.47
2018-10-16T11:32:57.600Z,36.11
2018-10-16T11:35:28.601Z,36.59
2018-10-16T11:37:59.891Z,37.13
2018-10-16T11:40:29.450Z,37.31
2018-10-16T11:43:00.604Z,37.45
2018-10-16T11:45:31.844Z,36.87
2018-10-16T11:48:01.437Z,36.64
2018-10-16T11:50:32.573Z,36.87
2018-10-16T11:53:03.542Z,37.15
2018-10-16T11:55:34.838Z,37.30
2018-10-16T11:58:05.852Z,37.26
2018-10-16T12:00:35.455Z,37.68
2018-10-16T12:03:06.575Z,38.00
2018-10-16T12:05:37.837Z,38.17
2018-10-16T12:08:07.479Z,38.32
2018-10-16T12:10:38.579Z,38.32
2018-10-16T12:13:09.667Z,38.13
2018-10-16T12:15:40.793Z,38.69
2018-10-16T12:18:23.990Z,39.12
2018-10-16T12:21:19.510Z,39.12
2018-10-16T12:23:50.993Z,39.57
2018-10-16T12:26:21.309Z,39.62
2018-10-16T12:28:52.590Z,40.07
2018-10-16T12:31:23.609Z,39.97
2018-10-16T12:33:54.946Z,38.64
2018-10-16T12:36:24.409Z,36.35
2018-10-16T12:38:55.655Z,35.78
2018-10-16T12:41:26.945Z,35.55
2018-10-16T12:43:56.468Z,34.31
2018-10-16T12:46:29.562Z,33.54
2018-10-16T12:49:00.909Z,33.27
2018-10-16T12:51:30.453Z,32.49
2018-10-16T12:54:01.589Z,32.17
2018-10-16T12:56:32.582Z,31.68
2018-10-16T12:59:03.831Z,30.72
2018-10-16T13:01:34.914Z,29.63
2018-10-16T13:04:04.448Z,29.63
2018-10-16T13:06:35.565Z,29.64
2018-10-16T13:09:07.516Z,30.83
2018-10-16T13:11:38.528Z,31.30
2018-10-16T13:14:09.677Z,30.71
2018-10-16T13:16:40.989Z,31.53
2018-10-16T13:19:11.882Z,31.76
2018-10-16T13:21:41.472Z,30.33
2018-10-16T13:24:12.406Z,29.14
2018-10-16T13:26:43.098Z,28.43
2018-10-16T13:29:14.478Z,27.65
2018-10-16T13:31:45.123Z,27.07
2018-10-16T13:34:16.407Z,26.61
2018-10-16T13:36:47.364Z,26.39
2018-10-16T13:39:18.126Z,26.12
2018-10-16T13:41:49.521Z,25.83
2018-10-16T13:44:20.481Z,25.76
2018-10-16T13:46:51.287Z,25.44
2018-10-16T13:49:22.371Z,25.12
2018-10-16T13:51:53.317Z,24.78
2018-10-16T13:54:24.130Z,24.54
2018-10-16T13:56:54.976Z,24.02
2018-10-16T13:59:24.500Z,24.02
2018-10-16T14:01:55.516Z,23.91
2018-10-16T14:04:26.457Z,23.70
2018-10-16T14:06:57.497Z,23.53
2018-10-16T14:09:28.457Z,23.32
2018-10-16T14:11:59.275Z,23.05
2018-10-16T14:14:30.419Z,22.92
2018-10-16T14:17:01.149Z,22.76
2018-10-16T14:19:31.962Z,22.71
2018-10-16T14:22:01.517Z,22.70
2018-10-16T14:24:32.475Z,22.67
2018-10-16T14:27:03.307Z,22.59
2018-10-16T14:29:34.393Z,22.76
2018-10-16T14:32:05.354Z,22.90
2018-10-16T14:34:36.514Z,22.66
2018-10-16T14:37:07.110Z,22.61
2018-10-16T14:39:38.051Z,22.91
2018-10-16T14:42:08.939Z,22.81
2018-10-16T14:44:38.448Z,22.81
2018-10-16T14:47:09.324Z,22.72
2018-10-16T14:49:40.058Z,22.76
2018-10-16T14:52:11.035Z,22.49
2018-10-16T14:54:40.443Z,22.49
2018-10-16T14:57:11.362Z,22.50
2018-10-16T14:59:42.336Z,22.38
2018-10-16T15:02:13.348Z,22.33
2018-10-16T15:04:44.289Z,22.32
2018-10-16T15:07:15.146Z,22.20
2018-10-16T15:09:45.971Z,22.07
2018-10-16T15:12:15.456Z,22.07
2018-10-16T15:14:46.135Z,21.98
2018-10-16T15:17:17.121Z,21.89
2018-10-16T15:19:48.057Z,21.62
2018-10-16T15:22:19.047Z,21.37
2018-10-16T15:24:49.956Z,21.12
2018-10-16T15:27:19.513Z,21.12
2018-10-16T15:29:50.585Z,21.13
2018-10-16T15:32:21.358Z,21.06
2018-10-16T15:34:52.050Z,20.94
2018-10-16T15:37:22.968Z,20.53
2018-10-16T15:39:52.407Z,20.53
2018-10-16T15:42:23.058Z,20.40
2018-10-16T15:44:53.951Z,20.51
2018-10-16T15:47:23.400Z,20.51
2018-10-16T15:49:54.189Z,20.67
2018-10-16T15:52:24.981Z,20.62
2018-10-16T15:54:55.886Z,20.62
2018-10-16T15:57:26.806Z,20.58
2018-10-16T15:59:57.572Z,20.47
2018-10-16T16:02:28.371Z,20.39
2018-10-16T16:04:59.048Z,20.36
2018-10-16T16:07:29.978Z,20.25
2018-10-16T16:10:00.919Z,20.25
2018-10-16T16:12:31.948Z,20.15
2018-10-16T16:15:02.878Z,20.00
2018-10-16T16:17:33.769Z,19.98
2018-10-16T16:20:04.556Z,20.05
2018-10-16T16:22:35.397Z,20.00
2018-10-16T16:25:06.548Z,19.99
2018-10-16T16:27:37.539Z,19.93
2018-10-16T16:30:09.443Z,19.85
2018-10-16T16:32:40.352Z,19.84
2018-10-16T16:35:11.147Z,19.75
2018-10-16T16:37:41.919Z,19.60
2018-10-16T16:40:12.333Z,19.60
2018-10-16T16:42:42.980Z,19.55
2018-10-16T16:45:13.989Z,19.49
2018-10-16T16:47:44.857Z,19.40
2018-10-16T16:50:15.575Z,19.34
2018-10-16T16:52:46.315Z,19.28
2018-10-16T16:55:17.581Z,19.19
2018-10-16T16:57:48.377Z,19.06
2018-10-16T17:00:19.069Z,18.96
2018-10-16T17:02:49.922Z,18.81
2018-10-16T17:05:20.862Z,18.81
2018-10-16T17:07:51.966Z,18.81
2018-10-16T17:10:22.869Z,18.73
2018-10-16T17:12:53.527Z,18.68
2018-10-16T17:15:24.323Z,18.61
2018-10-16T17:18:13.989Z,18.57
2018-10-16T17:21:03.518Z,18.50
2018-10-16T17:34:07.928Z,18.26
2018-10-16T17:36:38.800Z,18.20
2018-10-16T17:39:11.503Z,18.17
2018-10-16T17:41:42.580Z,18.13
2018-10-16T17:44:13.362Z,18.08
2018-10-16T17:46:44.081Z,18.04
2018-10-16T17:49:14.940Z,17.95
2018-10-16T17:51:44.397Z,17.95
2018-10-16T17:54:15.296Z,17.90
2018-10-16T17:56:46.086Z,17.88
2018-10-16T17:59:16.952Z,17.80
2018-10-16T18:02:05.054Z,17.80
2018-10-16T18:04:54.598Z,17.67
2018-10-16T18:07:44.986Z,17.67
2018-10-16T18:10:15.863Z,17.56
2018-10-16T18:12:46.948Z,17.52
2018-10-16T18:15:16.742Z,17.49
2018-10-16T18:21:37.949Z,17.46
2018-10-16T18:27:20.880Z,17.38
2018-10-16T18:29:51.618Z,17.34
2018-10-16T18:32:22.329Z,17.32
2018-10-16T18:34:53.089Z,17.28
2018-10-16T18:37:23.904Z,17.21
2018-10-16T18:39:54.582Z,17.21
2018-10-16T18:42:25.528Z,17.21
2018-10-16T18:44:56.364Z,17.19
2018-10-16T18:47:27.054Z,17.16
2018-10-16T18:49:57.937Z,17.08
2018-10-16T18:52:27.381Z,17.08
2018-10-16T18:54:58.135Z,17.04
2018-10-16T18:57:29.116Z,17.01
2018-10-16T18:59:59.900Z,16.94
2018-10-16T19:02:30.789Z,16.94
2018-10-16T19:05:01.761Z,16.90
2018-10-16T19:07:32.475Z,16.85
2018-10-16T19:10:03.440Z,16.85
2018-10-16T19:12:34.264Z,16.82
2018-10-16T19:15:05.113Z,16.82
2018-10-16T19:17:36.038Z,16.71
2018-10-16T19:20:07.558Z,16.72
2018-10-16T19:22:38.381Z,16.72
2018-10-16T19:25:10.333Z,16.69
2018-10-16T19:27:41.140Z,16.66
2018-10-16T19:30:12.957Z,16.56
2018-10-16T19:32:42.432Z,16.56
2018-10-16T19:35:14.428Z,16.60
2018-10-16T19:37:45.169Z,16.58
2018-10-16T19:40:15.902Z,16.53
2018-10-16T19:42:46.991Z,16.53
2018-10-16T19:45:17.950Z,16.58
2018-10-16T19:47:48.557Z,16.54
2018-10-16T19:50:19.367Z,16.57
2018-10-16T19:52:50.052Z,16.56
2018-10-16T19:55:20.935Z,16.52
2018-10-16T19:57:50.428Z,16.52
2018-10-16T20:00:21.188Z,16.51
2018-10-16T20:02:51.936Z,16.52
2018-10-16T20:05:21.421Z,16.50
2018-10-16T20:07:52.055Z,16.46
2018-10-16T20:10:22.840Z,16.45
2018-10-16T20:12:53.585Z,16.45
2018-10-16T20:15:24.321Z,16.46
2018-10-16T20:17:55.112Z,16.50
2018-10-16T20:20:25.931Z,16.43
2018-10-16T20:22:55.381Z,16.43
2018-10-16T20:25:26.223Z,16.41
2018-10-16T20:27:56.952Z,16.37
2018-10-16T20:30:26.380Z,16.28
2018-10-16T20:32:57.163Z,16.21
2018-10-16T20:35:27.990Z,16.17
2018-10-16T20:37:58.885Z,16.11
2018-10-16T20:40:29.887Z,16.09
2018-10-16T20:43:01.022Z,16.10
2018-10-16T20:45:30.414Z,16.08
2018-10-16T20:48:01.089Z,16.04
2018-10-16T20:50:31.979Z,15.88
2018-10-16T20:53:01.457Z,15.88
2018-10-16T20:55:32.119Z,15.85
2018-10-16T20:58:03.059Z,15.77
2018-10-16T21:00:33.973Z,15.78
2018-10-16T21:03:03.458Z,15.78
2018-10-16T21:05:34.175Z,15.76
2018-10-16T21:08:04.925Z,15.69
2018-10-16T21:10:35.934Z,15.69
2018-10-16T21:13:05.459Z,15.62
2018-10-16T21:15:36.061Z,15.55
2018-10-16T21:18:06.952Z,15.42
2018-10-16T21:20:36.399Z,15.42
2018-10-16T21:23:07.356Z,15.41
2018-10-16T21:25:38.052Z,15.38
2018-10-16T21:28:08.880Z,15.37
2018-10-16T21:30:39.800Z,15.37
2018-10-16T21:33:10.496Z,15.46
2018-10-16T21:35:41.368Z,15.44
2018-10-16T21:38:12.088Z,15.35
2018-10-16T21:40:42.967Z,15.26
2018-10-16T21:43:12.435Z,15.26
2018-10-16T21:45:43.301Z,15.29
2018-10-16T21:49:36.481Z,15.28
2018-10-16T21:52:07.574Z,15.18
2018-10-16T21:54:38.331Z,15.15
2018-10-16T21:57:09.080Z,15.10
2018-10-16T21:59:40.003Z,15.11
2018-10-16T22:02:27.856Z,15.11
2018-10-16T22:04:58.602Z,15.11
2018-10-16T22:07:29.292Z,15.04
2018-10-16T22:10:00.023Z,14.95
2018-10-16T22:12:30.864Z,14.94
2018-10-16T22:15:01.588Z,14.93
2018-10-16T22:17:32.317Z,14.88
2018-10-16T22:20:03.126Z,14.81
2018-10-16T22:22:33.903Z,14.70
2018-10-16T22:25:04.898Z,14.70
2018-10-16T22:27:35.855Z,14.63
2018-10-16T22:30:06.540Z,14.58
2018-10-16T22:32:37.352Z,14.56
2018-10-16T22:35:09.444Z,14.51
2018-10-16T22:37:40.283Z,14.47
2018-10-16T22:40:11.850Z,14.48
2018-10-16T22:42:42.581Z,14.45
2018-10-16T22:45:13.355Z,14.45
2018-10-16T22:47:44.083Z,14.44
2018-10-16T22:50:15.000Z,14.37
2018-10-16T22:52:45.590Z,14.37
2018-10-16T22:55:16.431Z,14.39
2018-10-16T22:57:47.092Z,14.39
2018-10-16T23:00:18.971Z,14.35
2018-10-16T23:02:49.261Z,14.35
2018-10-16T23:05:20.071Z,14.29
2018-10-16T23:08:09.584Z,14.17
2018-10-16T23:10:59.107Z,14.17
2018-10-16T23:13:29.954Z,14.04
2018-10-16T23:15:59.401Z,14.04
2018-10-16T23:22:04.320Z,14.08
2018-10-16T23:24:35.364Z,14.04
2018-10-16T23:27:06.301Z,14.02
2018-10-16T23:29:37.087Z,14.03
2018-10-16T23:32:08.071Z,14.06
2018-10-16T23:34:38.875Z,14.06
2018-10-16T23:37:09.639Z,14.06
2018-10-16T23:39:40.386Z,14.03
2018-10-16T23:42:11.056Z,14.03
2018-10-16T23:44:41.859Z,14.06
2018-10-16T23:47:12.561Z,14.06
2018-10-16T23:49:43.249Z,14.00
2018-10-16T23:52:14.069Z,13.95
2018-10-16T23:54:44.889Z,13.87
2018-10-16T23:57:15.550Z,13.87
2018-10-16T23:59:46.355Z,13.84
